Grice, Texas
Current Conditions -  °F | °C
As of 11:15 AM on Thursday 23 Oct 2014 (Local Time) from KOSA Reporting Station
Clear Clear  
Wind Chill: 64°   Ceiling: Unl
Heat Index: 64°   Visibility: 10mi
Dew Point: 50°   Wind: 3mph
Humidity: 61%   Direction: 110°ESE
Pressure: 30.2"   Gusts: NA
Location:  32.7353°N, 94.9492°W
Report Text: KOSA 231615Z AUTO 11003KT 10SM CLR 18/10 A3020 RMK AO1 T01760101
Loading
Personal Weather Stations






























Interactive Weather Map
Tropical Storm Tracking
New forecast layout! Learn more

10-Day Weather Forecast

Advertisements
Track Severe Weather on mobile